Lucky, Louisiana
Current Conditions -  °F | °C
As of 6:15 AM on Sunday 23 Nov 2014 (Local Time) from KRSN Reporting Station
Light Rain Light Rain  
Wind Chill: 63°   Ceiling: 600
Heat Index: 63°   Visibility: 10mi
Dew Point: 63°   Wind: 8mph
Humidity: 100%   Direction: 140°SE
Pressure: 29.69"   Gusts: NA
Location:  32.3029°N, 92.924°W
Report Text: KRSN 231215Z AUTO 14007KT 10SM -RA BKN006 OVC011 17/17 A2969 RMK AO2 P0001 T01700170
Loading
Personal Weather Stations






























Interactive Weather Map New forecast layout! Learn more

10-Day Weather Forecast

Advertisements
Track Severe Weather on mobile